Melrose, Ohio
Current Conditions -  °F | °C
As of 4:53 AM on Tuesday 27 Jan 2015 (Local Time) from KDFI Reporting Station
Broken Clouds Broken Clouds  
Wind Chill: 15°   Ceiling: 12000
Heat Index: 15°   Visibility: 9mi
Dew Point: 10°   Wind: 3mph
Humidity: 80%   Direction: 10°N
Pressure: 29.99"   Gusts: NA
Location:  41.09°N, 84.42°W
Report Text: KDFI 270953Z AUTO 01003KT 9SM BKN120 M09/M12 A2999 RMK AO2 SLP168 T10941122
Loading
Personal Weather Stations






























Interactive Weather Map New forecast layout! Learn more

10-Day Weather Forecast

Advertisements
Track Severe Weather on mobile